Time;durP1;ratioP1;P1;durP2;ratioP2;P2;SDS_P1;SDS_P2;PMS_P1;PMS_P2;Temp;Humidity;BMP_temperature;BMP_pressure;BME280_temperature;BME280_humidity;BME280_pressure;Samples;Min_cycle;Max_cycle;Signal;HPM_P1;HPM_P2
2023/10/11 00:02:26;;;;;;;39.90;14.80;;;16.60;99.90;;;;;;4941521;28;20407;-68
2023/10/11 00:04:51;;;;;;;39.78;15.07;;;16.70;99.90;;;;;;4962726;28;20062;-69
2023/10/11 00:07:18;;;;;;;40.70;15.20;;;16.70;99.90;;;;;;4962681;28;20043;-67
2023/10/11 00:09:44;;;;;;;35.72;14.77;;;16.70;99.90;;;;;;4943473;28;20387;-67
2023/10/11 00:12:11;;;;;;;46.92;15.57;;;16.70;99.90;;;;;;4956914;28;20046;-69
2023/10/11 00:14:40;;;;;;;41.05;15.07;;;16.70;99.90;;;;;;4944580;28;20058;-70
2023/10/11 00:17:08;;;;;;;37.42;14.93;;;16.80;99.90;;;;;;4960612;28;20154;-70
2023/10/11 00:19:34;;;;;;;38.42;14.02;;;16.80;99.90;;;;;;4962362;28;20562;-68
2023/10/11 00:22:01;;;;;;;36.75;15.05;;;16.80;99.90;;;;;;4941046;28;20150;-68
2023/10/11 00:24:28;;;;;;;37.80;15.75;;;16.80;99.90;;;;;;4962165;28;20482;-68
2023/10/11 00:26:57;;;;;;;42.95;15.80;;;16.80;99.90;;;;;;4961074;28;20490;-68
2023/10/11 00:29:23;;;;;;;41.60;15.98;;;16.80;99.90;;;;;;4942003;29;20062;-68
2023/10/11 00:31:51;;;;;;;39.55;15.27;;;16.80;99.90;;;;;;4959019;28;20040;-68
2023/10/11 00:34:18;;;;;;;36.95;15.63;;;16.80;99.90;;;;;;4958367;28;20040;-68
2023/10/11 00:36:45;;;;;;;40.78;15.80;;;16.90;99.90;;;;;;4942099;28;20061;-69
2023/10/11 00:39:17;;;;;;;42.20;15.48;;;16.80;99.90;;;;;;4960557;28;20073;-69
2023/10/11 00:41:48;;;;;;;40.80;16.17;;;16.80;99.90;;;;;;4959690;28;20039;-69
2023/10/11 00:44:20;;;;;;;39.53;15.95;;;16.80;99.90;;;;;;4963412;28;20121;-68
2023/10/11 00:46:59;;;;;;;54.72;16.13;;;16.80;99.90;;;;;;4962008;28;20367;-69
2023/10/11 00:49:35;;;;;;;37.70;14.65;;;16.80;99.90;;;;;;4965058;28;20467;-69
2023/10/11 00:52:04;;;;;;;45.95;15.27;;;16.80;99.90;;;;;;4966113;28;20050;-67
2023/10/11 00:54:30;;;;;;;46.55;16.17;;;16.70;99.90;;;;;;4957543;28;20042;-69
2023/10/11 00:56:56;;;;;;;38.40;15.43;;;16.80;99.90;;;;;;4965887;28;20038;-69
2023/10/11 00:59:22;;;;;;;38.72;15.15;;;16.80;99.90;;;;;;4965305;28;20393;-67
2023/10/11 01:01:50;;;;;;;42.13;16.30;;;16.80;99.90;;;;;;4962479;28;20503;-69
2023/10/11 01:04:16;;;;;;;41.45;16.02;;;16.90;99.90;;;;;;4962704;28;20098;-69
2023/10/11 01:06:42;;;;;;;50.00;16.50;;;16.80;99.90;;;;;;4947109;28;20809;-70
2023/10/11 01:09:16;;;;;;;39.10;15.50;;;16.80;99.90;;;;;;4948172;28;20562;-68
2023/10/11 01:11:42;;;;;;;;;;;16.80;99.90;;;;;;4960548;28;20058;-69
2023/10/11 01:14:11;;;;;;;38.53;14.80;;;16.80;99.90;;;;;;4965392;28;20806;-71
2023/10/11 01:16:37;;;;;;;45.50;15.95;;;16.80;99.90;;;;;;4964589;28;20082;-68
2023/10/11 01:19:08;;;;;;;41.15;15.98;;;16.80;99.90;;;;;;4962100;28;20396;-68
2023/10/11 01:21:34;;;;;;;50.50;16.05;;;16.80;99.90;;;;;;4961774;28;20050;-67
2023/10/11 01:23:59;;;;;;;40.63;15.68;;;16.80;99.90;;;;;;4957386;28;20047;-69
2023/10/11 01:26:27;;;;;;;41.90;15.00;;;16.80;99.90;;;;;;4947823;28;20065;-69
2023/10/11 01:28:56;;;;;;;44.30;15.45;;;16.80;99.90;;;;;;4964038;28;20580;-70
2023/10/11 01:31:22;;;;;;;42.45;13.88;;;16.80;99.90;;;;;;4961694;28;20406;-70
2023/10/11 01:33:49;;;;;;;38.50;14.52;;;16.80;99.90;;;;;;4946237;28;20117;-68
2023/10/11 01:36:15;;;;;;;40.42;14.52;;;16.80;99.90;;;;;;4962287;28;20083;-68
2023/10/11 01:38:48;;;;;;;47.00;14.95;;;16.80;99.90;;;;;;4961974;28;20113;-70
2023/10/11 01:41:20;;;;;;;44.88;14.73;;;16.80;99.90;;;;;;4963538;28;20090;-69
2023/10/11 01:43:46;;;;;;;41.72;14.00;;;16.80;99.90;;;;;;4941683;29;20459;-69
2023/10/11 01:46:15;;;;;;;39.88;14.80;;;16.70;99.90;;;;;;4961992;28;20047;-69
2023/10/11 01:48:41;;;;;;;40.28;13.95;;;16.80;99.90;;;;;;4964515;28;20410;-67
2023/10/11 01:51:09;;;;;;;36.88;14.93;;;16.80;99.90;;;;;;4947181;28;20050;-69
2023/10/11 01:53:35;;;;;;;49.50;15.25;;;16.80;99.90;;;;;;4950034;28;20043;-67
2023/10/11 01:56:03;;;;;;;42.42;13.80;;;16.80;99.90;;;;;;4964859;28;20053;-69
2023/10/11 01:58:28;;;;;;;38.47;14.35;;;16.70;99.90;;;;;;4961782;28;20689;-67
2023/10/11 02:00:55;;;;;;;41.08;15.07;;;16.80;99.90;;;;;;4961469;28;20106;-67
2023/10/11 02:03:24;;;;;;;35.42;14.25;;;16.70;99.90;;;;;;4960799;28;20043;-67
2023/10/11 02:05:50;;;;;;;38.22;14.20;;;16.70;99.90;;;;;;4953824;28;20504;-68
2023/10/11 02:08:17;;;;;;;42.15;15.57;;;16.70;99.90;;;;;;4961597;28;20050;-68
2023/10/11 02:10:45;;;;;;;50.28;15.35;;;16.70;99.90;;;;;;4962727;28;20532;-68
2023/10/11 02:13:11;;;;;;;40.92;15.77;;;16.70;99.90;;;;;;4947003;28;20482;-68
2023/10/11 02:15:39;;;;;;;41.22;15.00;;;16.60;99.90;;;;;;4962757;28;20121;-68
2023/10/11 02:18:08;;;;;;;39.17;15.88;;;16.60;99.90;;;;;;4960707;28;20142;-68
2023/10/11 02:20:43;;;;;;;35.92;15.57;;;16.60;99.90;;;;;;4960987;28;20130;-68
2023/10/11 02:23:09;;;;;;;39.58;14.35;;;16.60;99.90;;;;;;4927522;29;20062;-66
2023/10/11 02:25:34;;;;;;;38.58;16.45;;;16.60;99.90;;;;;;4959510;28;20043;-68
2023/10/11 02:28:00;;;;;;;39.10;15.35;;;16.60;99.90;;;;;;4962237;28;20505;-67
2023/10/11 02:30:26;;;;;;;43.35;15.50;;;16.50;99.90;;;;;;4960683;28;20090;-68
2023/10/11 02:32:53;;;;;;;40.10;15.20;;;16.50;99.90;;;;;;4962180;28;20804;-68
2023/10/11 02:35:20;;;;;;;39.33;15.65;;;16.50;99.90;;;;;;4953307;28;20132;-67
2023/10/11 02:37:46;;;;;;;41.03;15.70;;;16.50;99.90;;;;;;4960946;28;20059;-68
2023/10/11 02:40:16;;;;;;;40.50;16.15;;;16.50;99.90;;;;;;4962500;28;20047;-68
2023/10/11 02:42:49;;;;;;;39.78;15.55;;;16.50;99.90;;;;;;4963718;28;20486;-67
2023/10/11 02:45:19;;;;;;;44.42;16.30;;;16.40;99.90;;;;;;4961859;28;20050;-67
2023/10/11 02:47:45;;;;;;;43.78;15.73;;;16.40;99.90;;;;;;4960381;28;20047;-67
2023/10/11 02:50:11;;;;;;;45.88;16.15;;;16.40;99.90;;;;;;4965338;28;20458;-68
2023/10/11 02:52:37;;;;;;;44.25;16.10;;;16.40;99.90;;;;;;4942488;28;20049;-68
2023/10/11 02:55:13;;;;;;;46.67;16.00;;;16.40;99.90;;;;;;4945969;28;20487;-69
2023/10/11 02:57:42;;;;;;;47.20;16.35;;;16.40;99.90;;;;;;4934931;28;20051;-68
2023/10/11 03:00:21;;;;;;;38.25;15.82;;;16.30;99.90;;;;;;4959855;28;20140;-67
2023/10/11 03:02:54;;;;;;;39.05;15.23;;;16.30;99.90;;;;;;4959316;28;20043;-69
2023/10/11 03:05:27;;;;;;;38.00;16.02;;;16.30;99.90;;;;;;4960239;28;20371;-69
2023/10/11 03:08:13;;;;;;;36.95;15.27;;;16.30;99.90;;;;;;4952604;28;20043;-70
2023/10/11 03:10:44;;;;;;;45.25;16.13;;;16.30;99.90;;;;;;4957541;28;20043;-69
2023/10/11 03:13:24;;;;;;;38.08;15.70;;;16.20;99.90;;;;;;4942324;28;20082;-68
2023/10/11 03:15:56;;;;;;;40.58;16.73;;;16.20;99.90;;;;;;4960941;28;20182;-68
2023/10/11 03:18:25;;;;;;;51.83;16.60;;;16.30;99.90;;;;;;4959787;28;20772;-69
2023/10/11 03:21:07;;;;;;;43.45;15.52;;;16.30;99.90;;;;;;4962694;28;20102;-70
2023/10/11 03:23:43;;;;;;;44.35;16.35;;;16.30;99.90;;;;;;4959903;28;20106;-69
2023/10/11 03:28:45;;;;;;;43.08;15.38;;;16.30;99.90;;;;;;4942962;29;20063;-68
2023/10/11 03:31:12;;;;;;;38.25;15.35;;;16.20;99.90;;;;;;4963058;28;20059;-69
2023/10/11 03:33:40;;;;;;;38.30;15.77;;;16.20;99.90;;;;;;4959129;28;20050;-70
2023/10/11 03:36:18;;;;;;;40.80;15.23;;;16.30;99.90;;;;;;4961583;28;20129;-67
2023/10/11 03:38:51;;;;;;;40.78;15.60;;;16.20;99.90;;;;;;4959115;28;20489;-67
2023/10/11 03:41:24;;;;;;;31.98;14.60;;;16.20;99.90;;;;;;4962070;28;20049;-69
2023/10/11 03:43:54;;;;;;;39.13;13.63;;;16.20;99.90;;;;;;4960239;28;20057;-69
2023/10/11 03:46:24;;;;;;;43.58;13.90;;;16.20;99.90;;;;;;4961675;28;20483;-68
2023/10/11 03:49:01;;;;;;;42.30;14.85;;;16.20;99.90;;;;;;4962447;28;20042;-69
2023/10/11 03:51:28;;;;;;;33.47;13.30;;;16.20;99.90;;;;;;4942631;28;20043;-68
2023/10/11 03:53:54;;;;;;;35.97;13.07;;;16.20;99.90;;;;;;4959046;28;20150;-68
2023/10/11 03:56:19;;;;;;;37.63;14.73;;;16.30;99.90;;;;;;4961757;28;20715;-67
2023/10/11 03:58:45;;;;;;;40.38;14.07;;;16.30;99.90;;;;;;4959512;28;20554;-68
2023/10/11 04:03:42;;;;;;;41.13;13.85;;;16.20;99.90;;;;;;4942296;29;20048;-67
2023/10/11 04:06:14;;;;;;;38.80;13.50;;;16.20;99.90;;;;;;4942103;29;20135;-67
2023/10/11 04:08:42;;;;;;;49.38;14.27;;;16.20;99.90;;;;;;4941863;28;20142;-68
2023/10/11 04:11:17;;;;;;;41.78;13.60;;;16.20;99.90;;;;;;4943458;29;20086;-67
2023/10/11 04:13:45;;;;;;;35.80;12.90;;;16.20;99.90;;;;;;4939218;29;20107;-68
2023/10/11 04:16:17;;;;;;;36.22;13.32;;;16.20;99.90;;;;;;4934156;29;20067;-67
2023/10/11 04:18:43;;;;;;;37.42;12.40;;;16.20;99.90;;;;;;4940764;29;20051;-68
2023/10/11 04:21:39;;;;;;;33.20;12.73;;;16.20;99.90;;;;;;4945367;28;20525;-68
2023/10/11 04:24:06;;;;;;;;;;;16.20;99.90;;;;;;4938770;29;20578;-67
2023/10/11 04:26:33;;;;;;;34.33;13.25;;;16.20;99.90;;;;;;4943807;29;19934;-67
2023/10/11 04:29:06;;;;;;;35.58;12.40;;;16.20;99.90;;;;;;4944139;29;20047;-67
2023/10/11 04:34:23;;;;;;;32.92;12.63;;;16.20;99.90;;;;;;4935048;29;20146;-67
2023/10/11 04:36:51;;;;;;;33.10;12.25;;;16.20;99.90;;;;;;4943421;29;20073;-68
2023/10/11 04:39:27;;;;;;;39.75;12.80;;;16.20;99.90;;;;;;4943956;28;20063;-68
2023/10/11 04:41:57;;;;;;;45.47;13.85;;;16.20;99.90;;;;;;4943562;29;20054;-68
2023/10/11 04:44:42;;;;;;;32.65;12.68;;;16.20;99.90;;;;;;4946385;29;20043;-68
2023/10/11 04:47:11;;;;;;;33.10;11.73;;;16.30;99.90;;;;;;4945466;28;20101;-68
2023/10/11 04:49:37;;;;;;;33.03;11.75;;;16.30;99.90;;;;;;4942192;29;20031;-67
2023/10/11 04:52:10;;;;;;;35.88;11.63;;;16.20;99.90;;;;;;4942550;29;20118;-68
2023/10/11 04:54:36;;;;;;;37.28;11.73;;;16.30;99.90;;;;;;4942471;29;20043;-68
2023/10/11 04:57:16;;;;;;;41.22;11.57;;;16.30;99.90;;;;;;4941457;29;20051;-67
2023/10/11 04:59:42;;;;;;;32.60;11.15;;;16.30;99.90;;;;;;4944911;28;20055;-68
2023/10/11 05:02:09;;;;;;;30.67;11.75;;;16.30;99.90;;;;;;4930006;28;20465;-67
2023/10/11 05:04:41;;;;;;;33.67;11.57;;;16.30;99.90;;;;;;4945959;28;20069;-68
2023/10/11 05:07:07;;;;;;;33.90;11.63;;;16.30;99.90;;;;;;4960103;28;20051;-68
2023/10/11 05:09:39;;;;;;;40.25;12.48;;;16.20;99.90;;;;;;4965349;28;20066;-68
2023/10/11 05:12:10;;;;;;;31.38;11.07;;;16.30;99.90;;;;;;4965209;28;20081;-67
2023/10/11 05:19:45;;;;;;;38.90;11.73;;;16.30;99.90;;;;;;4964231;28;20435;-69
2023/10/11 05:22:17;;;;;;;35.75;11.57;;;16.30;99.90;;;;;;4947780;28;20086;-69
2023/10/11 05:35:24;;;;;;;32.83;12.35;;;16.40;99.90;;;;;;4942412;29;20758;-68
2023/10/11 05:51:32;;;;;;;37.37;12.97;;;16.30;99.90;;;;;;4955511;28;20078;-68
2023/10/11 05:53:59;;;;;;;40.10;13.20;;;16.30;99.90;;;;;;4961976;28;20545;-67
2023/10/11 05:56:25;;;;;;;37.97;13.25;;;16.30;99.90;;;;;;4947353;28;20054;-68
2023/10/11 05:58:53;;;;;;;38.03;12.82;;;16.30;99.90;;;;;;4964877;28;20043;-68
2023/10/11 06:01:21;;;;;;;42.55;13.50;;;16.30;99.90;;;;;;4957521;28;20059;-69
2023/10/11 06:03:51;;;;;;;40.90;13.35;;;16.30;99.90;;;;;;4946895;28;20050;-71
2023/10/11 06:06:24;;;;;;;40.42;13.38;;;16.30;99.90;;;;;;4962925;28;20058;-70
2023/10/11 06:08:55;;;;;;;45.63;13.43;;;16.20;99.90;;;;;;4944326;29;20058;-68
2023/10/11 06:11:24;;;;;;;36.30;12.68;;;16.30;99.90;;;;;;4949747;28;20141;-68
2023/10/11 06:13:52;;;;;;;44.30;13.18;;;16.30;99.90;;;;;;4961194;28;20051;-69
2023/10/11 06:16:20;;;;;;;32.38;14.23;;;16.30;99.90;;;;;;4961460;28;20070;-69
2023/10/11 06:19:15;;;;;;;39.40;13.85;;;16.30;99.90;;;;;;4936056;29;20054;-68
2023/10/11 06:21:56;;;;;;;31.52;13.40;;;16.30;99.90;;;;;;4962632;28;20058;-67
2023/10/11 06:24:26;;;;;;;38.65;13.10;;;16.40;99.90;;;;;;4963874;28;20137;-68
2023/10/11 06:26:52;;;;;;;32.40;12.80;;;16.40;99.90;;;;;;4953127;28;20039;-69
2023/10/11 06:29:23;;;;;;;36.85;13.00;;;16.40;99.90;;;;;;4961267;28;20451;-68
2023/10/11 06:31:49;;;;;;;41.58;13.75;;;16.50;99.90;;;;;;4962697;28;20054;-69
2023/10/11 06:36:49;;;;;;;38.80;13.25;;;16.50;99.90;;;;;;4956114;28;20493;-68
2023/10/11 06:42:13;;;;;;;36.20;12.25;;;16.50;99.90;;;;;;4961312;28;20441;-66
2023/10/11 06:44:40;;;;;;;37.17;13.63;;;16.50;99.90;;;;;;4956207;28;20047;-68
2023/10/11 06:47:06;;;;;;;37.92;12.05;;;16.60;99.90;;;;;;4962817;28;20066;-69
2023/10/11 06:49:40;;;;;;;31.42;11.27;;;16.60;99.90;;;;;;4963824;28;20066;-67
2023/10/11 06:52:07;;;;;;;35.17;11.40;;;16.50;99.90;;;;;;4961375;28;20051;-68
2023/10/11 06:54:33;;;;;;;35.00;10.57;;;16.70;99.90;;;;;;4926726;29;20580;-66
2023/10/11 06:57:01;;;;;;;36.33;11.30;;;16.70;99.90;;;;;;4960301;28;20043;-68
2023/10/11 06:59:28;;;;;;;28.35;10.40;;;16.70;99.90;;;;;;4952341;28;20061;-68
2023/10/11 07:01:54;;;;;;;33.60;11.55;;;16.70;99.90;;;;;;4960383;28;20078;-68
2023/10/11 07:04:19;;;;;;;45.72;12.15;;;16.80;99.90;;;;;;4961694;28;20503;-68
2023/10/11 07:06:48;;;;;;;31.58;11.40;;;16.80;99.90;;;;;;4963017;28;20038;-68
2023/10/11 07:09:22;;;;;;;40.83;11.73;;;16.80;99.90;;;;;;4945407;28;20047;-70
2023/10/11 07:12:28;;;;;;;34.07;10.40;;;16.80;99.90;;;;;;4960338;28;20086;-68
2023/10/11 07:14:41;;;;;;;34.22;11.02;;;16.90;99.90;;;;;;4962653;28;20129;-69
2023/10/11 07:17:08;;;;;;;31.13;10.80;;;16.90;99.90;;;;;;4957314;28;20578;-67
2023/10/11 07:19:36;;;;;;;34.33;11.48;;;16.90;99.90;;;;;;4961840;28;20051;-69
2023/10/11 07:22:03;;;;;;;32.85;11.27;;;16.90;99.90;;;;;;4945632;28;20846;-69
2023/10/11 07:24:33;;;;;;;24.85;9.70;;;16.90;99.90;;;;;;4962561;28;20125;-67
2023/10/11 07:27:12;;;;;;;31.85;11.10;;;17.00;99.90;;;;;;4959750;28;20043;-68
2023/10/11 07:29:44;;;;;;;32.88;10.75;;;17.00;99.90;;;;;;4943396;28;20090;-71
2023/10/11 07:32:11;;;;;;;31.45;11.02;;;17.00;99.90;;;;;;4963139;28;20053;-72
2023/10/11 07:34:38;;;;;;;32.88;12.02;;;17.00;99.90;;;;;;4945156;28;20054;-70
2023/10/11 07:37:05;;;;;;;36.05;11.82;;;17.10;99.90;;;;;;4959211;28;20087;-70
2023/10/11 07:39:35;;;;;;;32.03;11.75;;;17.10;99.90;;;;;;4942332;29;20051;-70
2023/10/11 07:42:08;;;;;;;33.05;11.25;;;17.10;99.90;;;;;;4944831;28;20062;-68
2023/10/11 07:44:38;;;;;;;34.97;11.57;;;17.10;99.90;;;;;;4962903;28;20130;-69
2023/10/11 07:47:15;;;;;;;36.22;11.43;;;17.10;99.90;;;;;;4954686;28;20054;-67
2023/10/11 07:49:44;;;;;;;33.75;10.65;;;17.20;99.90;;;;;;4945254;28;20047;-69
2023/10/11 07:52:13;;;;;;;30.02;11.40;;;17.20;99.90;;;;;;4960203;28;20054;-68
2023/10/11 07:54:43;;;;;;;37.58;11.68;;;17.20;99.90;;;;;;4959621;28;20138;-70
2023/10/11 07:57:14;;;;;;;35.13;12.10;;;17.20;99.90;;;;;;4930898;28;20047;-69
2023/10/11 07:59:41;;;;;;;32.25;11.85;;;17.30;99.90;;;;;;4949141;28;20603;-69
2023/10/11 08:04:59;;;;;;;32.80;11.85;;;17.30;99.90;;;;;;4903744;29;20063;-68
2023/10/11 08:07:26;;;;;;;34.65;12.10;;;17.30;99.90;;;;;;4904520;29;20504;-68
2023/10/11 08:09:55;;;;;;;33.95;12.20;;;17.30;99.90;;;;;;4890846;29;20060;-70
2023/10/11 08:12:23;;;;;;;30.10;12.48;;;17.30;99.90;;;;;;4905764;29;20056;-69
2023/10/11 08:14:53;;;;;;;36.10;12.38;;;17.30;99.90;;;;;;4888596;29;20115;-68
2023/10/11 08:17:20;;;;;;;39.03;12.02;;;17.30;99.90;;;;;;4902210;29;20060;-68
2023/10/11 08:19:48;;;;;;;29.70;11.75;;;17.30;99.90;;;;;;4903117;29;20040;-69
2023/10/11 08:22:15;;;;;;;25.00;11.20;;;17.30;99.90;;;;;;4907726;29;20197;-68
2023/10/11 08:24:47;;;;;;;31.83;10.85;;;17.30;99.90;;;;;;4889562;29;20453;-68
2023/10/11 08:27:14;;;;;;;34.80;11.23;;;17.30;99.90;;;;;;4906560;29;20131;-67
2023/10/11 08:29:42;;;;;;;32.17;11.23;;;17.30;99.90;;;;;;4905318;29;20075;-70
2023/10/11 08:32:13;;;;;;;31.77;11.80;;;17.30;99.90;;;;;;4902248;29;20059;-66
2023/10/11 08:34:46;;;;;;;31.83;11.48;;;17.30;99.90;;;;;;4903334;29;20552;-69
2023/10/11 08:37:15;;;;;;;34.38;10.18;;;17.30;99.90;;;;;;4909552;29;20052;-68
2023/10/11 08:39:46;;;;;;;23.38;9.57;;;17.30;99.90;;;;;;4906173;29;20151;-66
2023/10/11 08:42:15;;;;;;;25.30;10.40;;;17.30;99.90;;;;;;4940584;28;20051;-67
2023/10/11 08:44:45;;;;;;;26.15;9.93;;;17.30;99.90;;;;;;4959024;28;20041;-68
2023/10/11 08:47:16;;;;;;;23.27;9.35;;;17.30;99.90;;;;;;4959958;28;20054;-68
2023/10/11 08:49:48;;;;;;;23.35;9.45;;;17.20;99.90;;;;;;4960689;28;20039;-69
2023/10/11 08:52:27;;;;;;;23.75;9.43;;;17.30;99.90;;;;;;4948013;28;20089;-68
2023/10/11 08:54:53;;;;;;;20.52;7.95;;;17.30;99.90;;;;;;4958811;28;20295;-68
2023/10/11 08:57:23;;;;;;;20.95;8.52;;;17.20;99.90;;;;;;4945495;28;20643;-68
2023/10/11 08:59:50;;;;;;;24.65;8.75;;;17.30;99.90;;;;;;4954344;28;20113;-69
2023/10/11 09:02:17;;;;;;;17.45;7.80;;;17.30;99.90;;;;;;4956219;28;20058;-68
2023/10/11 09:04:59;;;;;;;19.90;7.82;;;17.30;99.90;;;;;;4945227;29;20078;-67
2023/10/11 09:07:39;;;;;;;18.42;8.00;;;17.30;99.90;;;;;;4946951;28;20091;-68
2023/10/11 09:10:26;;;;;;;18.10;7.53;;;17.30;99.90;;;;;;4948495;28;20402;-68
2023/10/11 09:12:56;;;;;;;20.23;7.72;;;17.20;99.90;;;;;;4960127;28;20719;-69
2023/10/11 09:15:24;;;;;;;22.15;7.93;;;17.20;99.90;;;;;;4963487;28;20493;-68
2023/10/11 09:18:08;;;;;;;19.25;8.30;;;17.20;99.90;;;;;;4964800;28;20049;-69
2023/10/11 09:20:40;;;;;;;18.65;8.35;;;17.20;99.90;;;;;;4963293;28;20384;-70
2023/10/11 09:23:06;;;;;;;22.88;7.95;;;17.20;99.90;;;;;;4947061;28;20042;-68
2023/10/11 09:25:47;;;;;;;16.95;7.75;;;17.30;99.90;;;;;;4947282;28;20514;-70
2023/10/11 09:28:16;;;;;;;18.92;7.95;;;17.30;99.90;;;;;;4965146;28;20383;-71
2023/10/11 09:30:44;;;;;;;22.02;6.97;;;17.30;99.90;;;;;;4963276;28;20498;-70
2023/10/11 09:33:19;;;;;;;17.17;6.93;;;17.30;99.90;;;;;;4962082;28;20554;-70
2023/10/11 09:35:49;;;;;;;;;;;17.40;99.90;;;;;;4963853;28;20238;-69
2023/10/11 09:38:19;;;;;;;15.75;6.97;;;17.50;99.90;;;;;;4965046;28;19949;-69
2023/10/11 09:40:45;;;;;;;17.13;7.00;;;17.60;99.90;;;;;;4963988;28;20059;-69
2023/10/11 09:43:16;;;;;;;16.80;6.70;;;17.70;99.90;;;;;;4961832;28;20051;-70
2023/10/11 09:45:44;;;;;;;23.13;8.00;;;17.60;99.90;;;;;;4961646;28;20137;-70
2023/10/11 09:48:12;;;;;;;18.00;7.25;;;17.70;99.90;;;;;;4961674;28;20881;-68
2023/10/11 09:50:41;;;;;;;18.52;7.22;;;17.80;99.90;;;;;;4961678;28;20126;-69
2023/10/11 09:53:14;;;;;;;15.77;7.38;;;17.80;99.90;;;;;;4946163;28;20055;-69
2023/10/11 09:55:58;;;;;;;23.80;7.35;;;17.80;99.90;;;;;;4964467;28;20062;-67
2023/10/11 09:58:48;;;;;;;22.35;7.70;;;17.90;99.90;;;;;;4936920;29;20129;-71
2023/10/11 10:01:32;;;;;;;16.27;6.80;;;17.90;99.90;;;;;;4963198;28;20137;-71
2023/10/11 10:04:04;;;;;;;16.83;6.93;;;18.00;99.90;;;;;;4964524;28;20053;-69
2023/10/11 10:06:30;;;;;;;15.77;6.30;;;18.10;99.90;;;;;;4953551;28;20055;-69
2023/10/11 10:09:16;;;;;;;12.07;5.75;;;18.10;99.90;;;;;;4961616;28;20057;-68
2023/10/11 10:12:05;;;;;;;18.48;5.75;;;18.20;99.90;;;;;;4954398;28;20039;-68
2023/10/11 10:14:35;;;;;;;14.38;5.40;;;18.20;99.90;;;;;;4963684;28;20461;-68
2023/10/11 10:17:13;;;;;;;15.20;6.32;;;18.20;99.90;;;;;;4964303;28;20042;-68
2023/10/11 10:19:43;;;;;;;11.73;4.68;;;18.20;99.90;;;;;;4943404;28;20074;-68
2023/10/11 10:22:27;;;;;;;14.07;5.55;;;18.20;99.90;;;;;;4961226;28;20043;-68
2023/10/11 10:24:57;;;;;;;9.80;4.18;;;18.20;99.90;;;;;;4953974;28;20384;-70
2023/10/11 10:27:34;;;;;;;13.68;4.75;;;18.20;99.90;;;;;;4961051;28;20403;-70
2023/10/11 10:30:01;;;;;;;11.10;5.00;;;18.10;99.90;;;;;;4954430;28;20371;-69
2023/10/11 10:32:27;;;;;;;13.55;5.18;;;18.20;99.90;;;;;;4961074;28;20138;-68
2023/10/11 10:35:22;;;;;;;15.70;5.40;;;18.20;99.90;;;;;;4963960;28;20039;-70
2023/10/11 10:37:47;;;;;;;14.02;4.93;;;18.30;99.90;;;;;;4935878;28;20129;-69
2023/10/11 10:40:24;;;;;;;11.60;4.35;;;18.30;99.90;;;;;;4943397;29;20933;-69
2023/10/11 10:43:19;;;;;;;14.27;4.43;;;18.50;99.90;;;;;;4942230;28;20098;-68
2023/10/11 10:45:47;;;;;;;11.52;5.13;;;18.70;99.90;;;;;;4959314;28;20167;-68
2023/10/11 10:48:14;;;;;;;12.50;4.15;;;18.80;99.90;;;;;;4966712;28;20039;-70
2023/10/11 10:51:03;;;;;;;11.18;4.00;;;18.80;99.90;;;;;;4963122;28;20065;-70
2023/10/11 10:53:50;;;;;;;11.15;4.22;;;19.00;99.90;;;;;;4957403;28;20042;-71
2023/10/11 10:56:29;;;;;;;9.27;3.97;;;19.10;99.90;;;;;;4944679;28;20101;-70
2023/10/11 10:59:15;;;;;;;9.20;4.18;;;19.20;99.90;;;;;;4961321;28;20057;-69
2023/10/11 11:01:44;;;;;;;14.00;3.95;;;19.20;99.90;;;;;;4954761;28;20063;-66
2023/10/11 11:04:12;;;;;;;11.18;3.80;;;19.30;99.90;;;;;;4943103;28;20046;-69
2023/10/11 11:06:39;;;;;;;11.63;3.47;;;19.40;99.90;;;;;;4963557;28;20097;-69
2023/10/11 11:09:14;;;;;;;12.93;3.80;;;19.50;99.90;;;;;;4963511;28;20055;-68
2023/10/11 11:11:40;;;;;;;;;;;19.50;99.90;;;;;;4959947;28;20047;-69
2023/10/11 11:14:13;;;;;;;12.55;3.47;;;19.60;99.90;;;;;;4943506;29;19962;-68
2023/10/11 11:16:41;;;;;;;11.52;3.78;;;19.80;99.90;;;;;;4935218;28;20055;-69
2023/10/11 11:19:17;;;;;;;12.20;3.70;;;19.70;99.90;;;;;;4960037;28;20043;-69
2023/10/11 11:21:46;;;;;;;9.05;3.60;;;19.70;99.90;;;;;;4947720;28;20051;-69
2023/10/11 11:24:27;;;;;;;10.27;3.78;;;19.70;99.90;;;;;;4960087;28;20511;-69
2023/10/11 11:26:54;;;;;;;10.45;3.42;;;19.60;99.90;;;;;;4954800;28;20117;-68
2023/10/11 11:29:32;;;;;;;8.02;3.42;;;19.60;99.90;;;;;;4928921;28;20046;-69
2023/10/11 11:31:59;;;;;;;10.43;3.22;;;19.50;99.90;;;;;;4960354;28;20039;-69
2023/10/11 11:34:34;;;;;;;8.95;2.78;;;19.50;99.90;;;;;;4963047;28;20054;-69
2023/10/11 11:37:05;;;;;;;13.25;3.20;;;19.50;99.90;;;;;;4934646;28;20051;-71
2023/10/11 11:39:39;;;;;;;11.85;2.97;;;19.60;99.90;;;;;;4959715;28;20047;-70
2023/10/11 11:42:24;;;;;;;6.40;2.92;;;19.50;99.90;;;;;;4951830;28;20051;-68
2023/10/11 11:44:50;;;;;;;10.68;3.13;;;19.50;99.90;;;;;;4943236;28;20513;-69
2023/10/11 11:47:22;;;;;;;8.48;3.47;;;19.50;99.90;;;;;;4960304;28;20055;-68
2023/10/11 11:49:48;;;;;;;13.35;3.65;;;19.50;99.90;;;;;;4942685;29;20047;-70
2023/10/11 11:52:16;;;;;;;12.07;3.55;;;19.50;99.90;;;;;;4934384;28;20406;-67
2023/10/11 11:54:47;;;;;;;12.25;3.53;;;19.60;99.90;;;;;;4959796;28;20109;-71
2023/10/11 11:57:13;;;;;;;13.65;3.38;;;19.70;99.90;;;;;;4948822;28;20121;-69
2023/10/11 11:59:39;;;;;;;10.40;3.03;;;19.80;99.90;;;;;;4943065;28;20047;-67
2023/10/11 12:02:09;;;;;;;12.02;3.47;;;19.90;99.90;;;;;;4962408;28;20055;-68
2023/10/11 12:04:36;;;;;;;8.25;3.03;;;19.90;99.90;;;;;;4962759;28;20035;-69
2023/10/11 12:07:05;;;;;;;8.80;2.85;;;19.90;99.90;;;;;;4955732;28;20483;-69
2023/10/11 12:09:35;;;;;;;11.23;3.17;;;19.90;99.90;;;;;;4951649;28;20043;-68
2023/10/11 12:12:05;;;;;;;11.63;3.30;;;19.90;99.90;;;;;;4942112;29;20537;-70
2023/10/11 12:14:38;;;;;;;13.23;3.42;;;20.00;99.90;;;;;;4961925;28;20043;-68
2023/10/11 12:17:11;;;;;;;11.13;3.45;;;20.00;99.90;;;;;;4960757;28;20055;-66
2023/10/11 12:19:40;;;;;;;10.00;3.03;;;20.00;99.90;;;;;;4944120;28;20436;-70
2023/10/11 12:22:07;;;;;;;8.32;3.25;;;19.90;99.90;;;;;;4960831;28;20050;-69
2023/10/11 12:24:34;;;;;;;12.48;3.35;;;19.80;99.90;;;;;;4960414;28;20483;-69
2023/10/11 12:26:59;;;;;;;13.55;3.20;;;19.90;99.90;;;;;;4944890;28;20047;-67
2023/10/11 12:29:28;;;;;;;13.98;3.47;;;19.80;99.90;;;;;;4961790;28;20054;-68
2023/10/11 12:31:54;;;;;;;7.35;2.40;;;19.70;99.90;;;;;;4952093;28;20043;-67
2023/10/11 12:34:24;;;;;;;7.60;2.63;;;19.60;99.90;;;;;;4965353;28;20057;-69
2023/10/11 12:36:54;;;;;;;7.75;2.92;;;19.60;99.90;;;;;;4962936;28;20046;-71
2023/10/11 12:39:20;;;;;;;8.32;2.40;;;19.60;99.90;;;;;;4944650;28;20051;-72
2023/10/11 12:41:50;;;;;;;9.50;2.63;;;19.50;99.90;;;;;;4961584;28;20049;-69
2023/10/11 12:44:17;;;;;;;7.68;3.17;;;19.50;99.90;;;;;;4965875;28;20162;-68
2023/10/11 12:46:43;;;;;;;10.57;3.15;;;19.50;99.90;;;;;;4958095;28;20126;-69
2023/10/11 12:49:15;;;;;;;11.32;2.95;;;19.40;99.90;;;;;;4965838;28;20070;-69
2023/10/11 12:51:47;;;;;;;11.88;3.10;;;19.40;99.90;;;;;;4950072;29;20099;-67
2023/10/11 12:54:14;;;;;;;10.52;2.90;;;19.50;99.90;;;;;;4965422;28;20058;-69
2023/10/11 12:56:42;;;;;;;10.25;3.58;;;19.60;99.90;;;;;;4965586;28;20478;-69
2023/10/11 12:59:15;;;;;;;11.90;3.03;;;19.70;99.90;;;;;;4964113;28;20038;-68
2023/10/11 13:01:50;;;;;;;12.52;3.70;;;19.80;99.90;;;;;;4962359;28;20137;-69
2023/10/11 13:07:13;;;;;;;8.23;2.63;;;19.80;99.90;;;;;;4904877;29;20067;-67
2023/10/11 13:09:40;;;;;;;11.55;3.00;;;19.80;99.90;;;;;;4902926;29;20040;-69
2023/10/11 13:12:06;;;;;;;12.13;3.10;;;19.80;99.90;;;;;;4902965;29;20061;-69
2023/10/11 13:14:33;;;;;;;8.15;3.28;;;19.70;99.90;;;;;;4905118;29;20055;-71
2023/10/11 13:17:00;;;;;;;8.25;2.88;;;19.70;99.90;;;;;;4905380;29;20052;-69
2023/10/11 13:19:26;;;;;;;12.32;3.40;;;19.70;99.90;;;;;;4904870;29;20052;-67
2023/10/11 13:21:54;;;;;;;11.57;3.42;;;19.70;99.90;;;;;;4905324;29;20054;-68
2023/10/11 13:24:25;;;;;;;9.15;3.13;;;19.70;99.90;;;;;;4904223;29;20091;-68
2023/10/11 13:26:54;;;;;;;9.73;2.85;;;19.70;99.90;;;;;;4902413;29;20119;-68
2023/10/11 13:29:23;;;;;;;9.90;3.10;;;19.70;99.90;;;;;;4902185;29;20063;-68
2023/10/11 13:31:54;;;;;;;10.48;3.15;;;19.60;99.90;;;;;;4904706;29;20868;-68
2023/10/11 13:34:21;;;;;;;10.50;4.07;;;19.60;99.90;;;;;;4905240;29;20099;-68
2023/10/11 13:36:47;;;;;;;13.25;4.00;;;19.40;99.90;;;;;;4903230;28;20116;-68
2023/10/11 13:39:28;;;;;;;13.23;4.18;;;19.40;99.90;;;;;;4902076;29;20052;-71